地図

経路データ

SID SEASON NUMBER BASIN SUBBASIN NAME ISO_TIME NATURE LAT LON WMO_WIND WMO_PRES WMO_AGENCY TRACK_TYPE DIST2LAND LANDFALL IFLAG USA_AGENCY USA_ATCF_ID USA_LAT USA_LON USA_RECORD USA_STATUS USA_WIND USA_PRES USA_SSHS USA_R34_NE USA_R34_SE USA_R34_SW USA_R34_NW USA_R50_NE USA_R50_SE USA_R50_SW USA_R50_NW USA_R64_NE USA_R64_SE USA_R64_SW USA_R64_NW USA_POCI USA_ROCI USA_RMW USA_EYE TOKYO_LAT TOKYO_LON TOKYO_GRADE TOKYO_WIND TOKYO_PRES TOKYO_R50_DIR TOKYO_R50_LONG TOKYO_R50_SHORT TOKYO_R30_DIR TOKYO_R30_LONG TOKYO_R30_SHORT TOKYO_LAND CMA_LAT CMA_LON CMA_CAT CMA_WIND CMA_PRES HKO_LAT HKO_LON HKO_CAT HKO_WIND HKO_PRES NEWDELHI_LAT NEWDELHI_LON NEWDELHI_GRADE NEWDELHI_WIND NEWDELHI_PRES NEWDELHI_CI NEWDELHI_DP NEWDELHI_POCI REUNION_LAT REUNION_LON REUNION_TYPE REUNION_WIND REUNION_PRES REUNION_TNUM REUNION_CI REUNION_RMW REUNION_R34_NE REUNION_R34_SE REUNION_R34_SW REUNION_R34_NW REUNION_R50_NE REUNION_R50_SE REUNION_R50_SW REUNION_R50_NW REUNION_R64_NE REUNION_R64_SE REUNION_R64_SW REUNION_R64_NW BOM_LAT BOM_LON BOM_TYPE BOM_WIND BOM_PRES BOM_TNUM BOM_CI BOM_RMW BOM_R34_NE BOM_R34_SE BOM_R34_SW BOM_R34_NW BOM_R50_NE BOM_R50_SE BOM_R50_SW BOM_R50_NW BOM_R64_NE BOM_R64_SE BOM_R64_SW BOM_R64_NW BOM_ROCI BOM_POCI BOM_EYE BOM_POS_METHOD BOM_PRES_METHOD NADI_LAT NADI_LON NADI_CAT NADI_WIND NADI_PRES WELLINGTON_LAT WELLINGTON_LON WELLINGTON_WIND WELLINGTON_PRES DS824_LAT DS824_LON DS824_STAGE DS824_WIND DS824_PRES TD9636_LAT TD9636_LON TD9636_STAGE TD9636_WIND TD9636_PRES TD9635_LAT TD9635_LON TD9635_WIND TD9635_PRES TD9635_ROCI NEUMANN_LAT NEUMANN_LON NEUMANN_CLASS NEUMANN_WIND NEUMANN_PRES MLC_LAT MLC_LON MLC_CLASS MLC_WIND MLC_PRES USA_GUST BOM_GUST BOM_GUST_PER REUNION_GUST REUNION_GUST_PER USA_SEAHGT USA_SEARAD_NE USA_SEARAD_SE USA_SEARAD_SW USA_SEARAD_NW STORM_SPEED STORM_DIR
1890042S17056 1890 8 SI MM NOT_NAMED 1890-02-11 06:00:00 NR -16.5000 56.0000 reunion main 432 426 _____O________ -1 -16.5000 56.0000 99 9.90000 4 238
1890042S17056 1890 8 SI MM NOT_NAMED 1890-02-11 09:00:00 NR -16.5995 55.8315 main 430 425 _____P________ -1 -16.5995 55.8315 99 4 238
1890042S17056 1890 8 SI MM NOT_NAMED 1890-02-11 12:00:00 NR -16.6989 55.6622 main 425 420 _____P________ -1 -16.6989 55.6622 99 4 239
1890042S17056 1890 8 SI MM NOT_NAMED 1890-02-11 15:00:00 NR -16.7985 55.4916 main 425 420 _____P________ -1 -16.7985 55.4916 99 4 239
1890042S17056 1890 8 SI MM NOT_NAMED 1890-02-11 18:00:00 NR -16.8981 55.3192 main 426 423 _____P________ -1 -16.8981 55.3192 99 4 239
1890042S17056 1890 8 SI MM NOT_NAMED 1890-02-11 21:00:00 NR -16.9980 55.1444 main 429 426 _____P________ -1 -16.9980 55.1444 99 4 239
1890042S17056 1890 8 SI MM NOT_NAMED 1890-02-12 00:00:00 NR -17.0982 54.9667 main 426 424 _____P________ -1 -17.0982 54.9667 99 4 240
1890042S17056 1890 8 SI MM NOT_NAMED 1890-02-12 03:00:00 NR -17.1989 54.7854 main 428 418 _____P________ -1 -17.1989 54.7854 99 4 240
1890042S17056 1890 8 SI MM NOT_NAMED 1890-02-12 06:00:00 NR -17.3000 54.6000 reunion main 420 411 _____O________ -1 -17.3000 54.6000 99 9.90000 4 240
1890042S17056 1890 8 SI MM NOT_NAMED 1890-02-12 09:00:00 NR -17.4024 54.4098 main 413 405 _____P________ -1 -17.4024 54.4098 99 4 240
1890042S17056 1890 8 SI MM NOT_NAMED 1890-02-12 12:00:00 NR -17.5097 54.2132 main 408 400 _____P________ -1 -17.5097 54.2132 99 4 240
1890042S17056 1890 8 SI MM NOT_NAMED 1890-02-12 15:00:00 NR -17.6263 54.0086 main 404 393 _____P________ -1 -17.6263 54.0086 99 5 238
1890042S17056 1890 8 SI MM NOT_NAMED 1890-02-12 18:00:00 NR -17.7565 53.7940 main 390 389 _____P________ -1 -17.7565 53.7940 99 5 236
1890042S17056 1890 8 SI MM NOT_NAMED 1890-02-12 21:00:00 NR -17.9047 53.5678 main 389 380 _____P________ -1 -17.9047 53.5678 99 5 234
1890042S17056 1890 8 SI MM NOT_NAMED 1890-02-13 00:00:00 NR -18.0751 53.3280 main 386 379 _____P________ -1 -18.0751 53.3280 99 6 232
1890042S17056 1890 8 SI MM NOT_NAMED 1890-02-13 03:00:00 NR -18.2721 53.0727 main 379 360 _____P________ -1 -18.2721 53.0727 99 7 230
1890042S17056 1890 8 SI MM NOT_NAMED 1890-02-13 06:00:00 NR -18.5000 52.8000 reunion main 360 331 _____O________ -1 -18.5000 52.8000 99 9.90000 7 228
1890042S17056 1890 8 SI MM NOT_NAMED 1890-02-13 09:00:00 NR -18.7617 52.5085 main 333 308 _____P________ -1 -18.7617 52.5085 99 8 226
1890042S17056 1890 8 SI MM NOT_NAMED 1890-02-13 12:00:00 NR -19.0541 52.1996 main 311 290 _____P________ -1 -19.0541 52.1996 99 9 224
1890042S17056 1890 8 SI MM NOT_NAMED 1890-02-13 15:00:00 NR -19.3727 51.8754 main 294 270 _____P________ -1 -19.3727 51.8754 99 9 223
1890042S17056 1890 8 SI MM NOT_NAMED 1890-02-13 18:00:00 NR -19.7129 51.5379 main 263 246 _____P________ -1 -19.7129 51.5379 99 10 223
1890042S17056 1890 8 SI MM NOT_NAMED 1890-02-13 21:00:00 NR -20.0703 51.1893 main 250 221 _____P________ -1 -20.0703 51.1893 99 10 222
1890042S17056 1890 8 SI MM NOT_NAMED 1890-02-14 00:00:00 NR -20.4403 50.8320 main 213 193 _____P________ -1 -20.4403 50.8320 99 10 222
1890042S17056 1890 8 SI MM NOT_NAMED 1890-02-14 03:00:00 NR -20.8184 50.4681 main 198 177 _____P________ -1 -20.8184 50.4681 99 10 222
1890042S17056 1890 8 SI MM NOT_NAMED 1890-02-14 06:00:00 NR -21.2000 50.1000 reunion main 177 _____O________ -1 -21.2000 50.1000 99 9.90000 10 222

IBTrACS Databaseについて

本データベースは、米国NOAAが公開する1842年以降の世界の熱帯低気圧のベストトラックデータアーカイブInternational Best Track Archive for Climate Stewardship (IBTrACS)を、ウェブで閲覧しやすい形式に変換したものです。

最終更新日:2021-11-26